Aviation Digital Data Service (ADDS)

Output produced by METARs form (1010 UTC 17 February 2019)
found at http://aviationweather.gov/metar/data/
 
KCGZ 170956Z AUTO 20003KT 10SM CLR 04/M01 A2997 RMK AO2 SLP148 T00391011 PNO $